Time;durP1;ratioP1;P1;durP2;ratioP2;P2;SDS_P1;SDS_P2;PMS_P1;PMS_P2;Temp;Humidity;BMP_temperature;BMP_pressure;BME280_temperature;BME280_humidity;BME280_pressure;Samples;Min_cycle;Max_cycle;Signal;HPM_P1;HPM_P2
2021/06/19 00:02:34;;;;;;;7.20;6.50;;;26.20;28.10;;;;;;10393730;28;20806;-83
2021/06/19 00:07:40;;;;;;;7.83;7.30;;;26.20;27.40;;;;;;10397064;28;20246;-84
2021/06/19 00:12:44;;;;;;;7.57;6.97;;;26.20;28.50;;;;;;10386658;28;20236;-84
2021/06/19 00:17:48;;;;;;;8.03;7.43;;;26.10;27.80;;;;;;10389919;28;20225;-84
2021/06/19 00:22:53;;;;;;;8.13;7.33;;;25.90;27.70;;;;;;10397076;28;20245;-84
2021/06/19 00:27:56;;;;;;;7.80;7.20;;;25.60;28.50;;;;;;10379544;28;20222;-84
2021/06/19 00:33:00;;;;;;;7.00;6.33;;;25.30;28.40;;;;;;10406407;28;20230;-83
2021/06/19 00:38:04;;;;;;;7.30;6.50;;;25.00;28.70;;;;;;10398711;28;20241;-83
2021/06/19 00:43:07;;;;;;;8.27;7.47;;;24.90;28.80;;;;;;10396694;28;20226;-83
2021/06/19 00:48:12;;;;;;;7.57;6.87;;;24.90;28.60;;;;;;10408019;28;20239;-83
2021/06/19 00:53:17;;;;;;;6.60;6.10;;;24.90;29.20;;;;;;10400425;28;20230;-83
2021/06/19 00:58:20;;;;;;;7.30;6.73;;;24.80;29.30;;;;;;10407043;28;20233;-83
2021/06/19 01:03:24;;;;;;;7.63;6.70;;;24.80;29.20;;;;;;10402262;28;20779;-83
2021/06/19 01:08:28;;;;;;;8.17;7.37;;;24.70;29.20;;;;;;10397040;28;20236;-84
2021/06/19 01:13:31;;;;;;;7.40;6.80;;;24.60;29.70;;;;;;10399773;28;20226;-83
2021/06/19 01:18:34;;;;;;;7.33;6.63;;;24.40;29.20;;;;;;10382942;28;20244;-83
2021/06/19 01:23:39;;;;;;;7.20;6.60;;;24.30;29.60;;;;;;10390025;28;20231;-83
2021/06/19 01:28:44;;;;;;;6.90;6.40;;;24.30;30.30;;;;;;10402551;28;20569;-83
2021/06/19 01:33:49;;;;;;;7.23;6.63;;;24.30;30.50;;;;;;10388878;28;20225;-83
2021/06/19 01:38:54;;;;;;;6.97;6.30;;;24.40;30.30;;;;;;10390401;28;20236;-83
2021/06/19 01:44:01;;;;;;;7.33;6.33;;;24.40;30.00;;;;;;10392216;28;20588;-83
2021/06/19 01:49:04;;;;;;;7.63;6.97;;;24.50;30.80;;;;;;10386036;28;20222;-83
2021/06/19 01:54:08;;;;;;;7.80;7.10;;;24.50;30.00;;;;;;10375248;28;20702;-83
2021/06/19 01:59:12;;;;;;;7.10;6.60;;;24.50;30.00;;;;;;10389143;28;20635;-83
2021/06/19 02:04:22;;;;;;;6.93;6.43;;;24.40;30.20;;;;;;10396919;28;20241;-83
2021/06/19 02:09:25;;;;;;;7.00;6.47;;;24.40;30.80;;;;;;10393623;28;20232;-83
2021/06/19 02:14:29;;;;;;;8.57;7.77;;;24.40;30.00;;;;;;10384438;28;20241;-83
2021/06/19 02:19:33;;;;;;;8.17;7.63;;;24.30;30.70;;;;;;10385418;28;20233;-83
2021/06/19 02:24:36;;;;;;;8.10;7.40;;;24.10;30.30;;;;;;10398846;28;20596;-83
2021/06/19 02:29:42;;;;;;;8.70;7.90;;;24.00;30.50;;;;;;10385466;28;20710;-83
2021/06/19 02:34:45;;;;;;;8.57;7.77;;;23.80;31.30;;;;;;10395230;28;20229;-83
2021/06/19 02:39:48;;;;;;;8.33;7.40;;;23.80;30.80;;;;;;10393999;28;20236;-83
2021/06/19 02:44:52;;;;;;;8.13;7.50;;;23.70;31.00;;;;;;10385829;28;20236;-83
2021/06/19 02:49:55;;;;;;;7.83;7.30;;;23.60;31.60;;;;;;10382307;28;20856;-83
2021/06/19 02:54:59;;;;;;;7.90;7.30;;;23.50;31.20;;;;;;10383246;28;20230;-83
2021/06/19 03:00:04;;;;;;;8.23;7.50;;;23.50;31.40;;;;;;10391272;28;20240;-80
2021/06/19 03:05:09;;;;;;;7.83;7.03;;;23.40;32.10;;;;;;10385374;28;20252;-82
2021/06/19 03:10:15;;;;;;;8.13;7.53;;;23.40;32.20;;;;;;10384937;28;20306;-83
2021/06/19 03:15:20;;;;;;;7.77;7.17;;;23.30;32.40;;;;;;10382469;28;20233;-83
2021/06/19 03:20:24;;;;;;;8.10;7.43;;;23.30;32.50;;;;;;10385497;28;20229;-83
2021/06/19 03:25:29;;;;;;;9.50;8.50;;;23.40;32.70;;;;;;10387466;28;20238;-83
2021/06/19 03:30:35;;;;;;;10.07;8.17;;;23.40;32.40;;;;;;10382691;28;20233;-83
2021/06/19 03:35:39;;;;;;;8.57;7.77;;;23.40;33.00;;;;;;10393507;28;20230;-83
2021/06/19 03:40:42;;;;;;;7.10;6.50;;;23.30;32.40;;;;;;10383606;28;20251;-83
2021/06/19 03:45:46;;;;;;;8.77;7.97;;;23.20;32.10;;;;;;10380776;28;20248;-83
2021/06/19 03:50:49;;;;;;;8.50;7.90;;;23.20;33.20;;;;;;10395342;28;20232;-83
2021/06/19 03:55:53;;;;;;;9.10;8.37;;;23.10;32.60;;;;;;10380787;28;20329;-83
2021/06/19 04:00:58;;;;;;;9.43;8.60;;;23.10;32.90;;;;;;10381588;28;20236;-83
2021/06/19 04:06:01;;;;;;;8.63;7.77;;;23.10;33.60;;;;;;10396428;28;20233;-83
2021/06/19 04:11:04;;;;;;;8.07;7.30;;;23.10;32.90;;;;;;10394697;28;20225;-83
2021/06/19 04:16:10;;;;;;;9.63;8.40;;;23.10;32.70;;;;;;10406965;28;20237;-83
2021/06/19 04:21:14;;;;;;;9.40;8.47;;;23.20;33.70;;;;;;10400183;28;20275;-83
2021/06/19 04:26:19;;;;;;;9.60;8.70;;;23.20;33.60;;;;;;10392154;28;20240;-83
2021/06/19 04:31:24;;;;;;;10.87;9.40;;;23.20;33.40;;;;;;10394149;28;20229;-83
2021/06/19 04:36:27;;;;;;;9.20;8.43;;;23.20;33.80;;;;;;10401481;28;20237;-83
2021/06/19 04:41:34;;;;;;;9.63;8.70;;;23.10;33.30;;;;;;10398168;28;20333;-83
2021/06/19 04:46:38;;;;;;;8.97;8.27;;;23.10;33.60;;;;;;10398792;28;20610;-83
2021/06/19 04:51:42;;;;;;;9.47;8.67;;;23.10;34.20;;;;;;10401978;28;20320;-83
2021/06/19 04:56:45;;;;;;;10.10;9.30;;;23.20;33.90;;;;;;10400587;28;21309;-83
2021/06/19 05:01:49;;;;;;;9.90;9.10;;;23.20;34.00;;;;;;10396530;28;20240;-83
2021/06/19 05:06:53;;;;;;;12.27;9.77;;;23.30;34.60;;;;;;10403273;28;20612;-83
2021/06/19 05:11:56;;;;;;;10.50;9.50;;;23.30;34.50;;;;;;10394596;28;20724;-83
2021/06/19 05:17:00;;;;;;;11.67;10.67;;;23.30;35.00;;;;;;10394121;28;20218;-82
2021/06/19 05:22:05;;;;;;;10.40;9.50;;;23.40;36.10;;;;;;10393012;28;20229;-82
2021/06/19 05:27:08;;;;;;;10.90;9.90;;;23.40;36.10;;;;;;10402957;28;20229;-83
2021/06/19 05:32:13;;;;;;;10.80;9.80;;;23.60;36.00;;;;;;10399430;28;20709;-83
2021/06/19 05:37:16;;;;;;;10.83;9.17;;;23.70;37.00;;;;;;10393593;28;20222;-83
2021/06/19 05:42:19;;;;;;;9.50;8.53;;;23.90;36.20;;;;;;10395420;28;20803;-83
2021/06/19 05:47:24;;;;;;;8.70;8.10;;;24.10;36.40;;;;;;10392983;28;20900;-77
2021/06/19 05:52:27;;;;;;;7.97;6.97;;;24.30;37.10;;;;;;10387956;28;20234;-77
2021/06/19 05:57:30;;;;;;;7.43;6.70;;;24.60;36.10;;;;;;10394000;28;20618;-83
2021/06/19 06:02:35;;;;;;;7.53;6.83;;;24.90;36.00;;;;;;10387714;28;20225;-74
2021/06/19 06:07:38;;;;;;;6.90;6.20;;;25.20;35.40;;;;;;10378326;28;20235;-74
2021/06/19 06:12:42;;;;;;;6.90;6.30;;;25.40;35.00;;;;;;10381687;28;20594;-74
2021/06/19 06:17:47;;;;;;;6.63;6.03;;;25.70;34.80;;;;;;10381566;28;20780;-74
2021/06/19 06:22:52;;;;;;;7.43;6.20;;;25.90;34.50;;;;;;10383090;28;20230;-74
2021/06/19 06:27:55;;;;;;;7.17;6.57;;;26.10;34.10;;;;;;10385213;28;20574;-73
2021/06/19 06:33:00;;;;;;;7.33;6.60;;;26.30;34.00;;;;;;10396732;28;20236;-83
2021/06/19 06:38:03;;;;;;;8.03;6.43;;;26.40;34.00;;;;;;10396209;28;20226;-82
2021/06/19 06:43:06;;;;;;;7.00;6.30;;;26.60;33.90;;;;;;10395982;28;20234;-84
2021/06/19 06:48:12;;;;;;;7.13;5.87;;;26.80;33.60;;;;;;10394133;28;20221;-84
2021/06/19 06:53:15;;;;;;;8.27;6.60;;;26.90;33.70;;;;;;10392549;28;20228;-84
2021/06/19 06:58:20;;;;;;;12.27;6.40;;;27.00;33.60;;;;;;10394196;28;20233;-85
2021/06/19 07:03:25;;;;;;;7.00;6.47;;;27.00;34.00;;;;;;10396829;28;20229;-84
2021/06/19 07:08:28;;;;;;;7.37;6.30;;;27.10;33.50;;;;;;10381964;28;20241;-74
2021/06/19 07:13:31;;;;;;;6.53;5.90;;;27.20;33.20;;;;;;10373670;28;20238;-84
2021/06/19 07:18:38;;;;;;;5.80;5.30;;;27.30;33.10;;;;;;10390504;28;20225;-84
2021/06/19 07:23:41;;;;;;;6.70;6.13;;;27.40;33.00;;;;;;10380034;28;20692;-77
2021/06/19 07:28:45;;;;;;;7.33;6.17;;;27.50;33.10;;;;;;10387096;28;20229;-74
2021/06/19 07:33:50;;;;;;;8.30;6.10;;;27.60;33.10;;;;;;10376191;28;20234;-77
2021/06/19 07:38:53;;;;;;;6.67;6.07;;;27.80;32.60;;;;;;10386088;28;20244;-77
2021/06/19 07:43:56;;;;;;;6.37;5.87;;;28.00;32.90;;;;;;10392373;28;20234;-80
2021/06/19 07:49:02;;;;;;;6.70;6.10;;;28.10;32.40;;;;;;10385285;28;20225;-75
2021/06/19 07:54:06;;;;;;;8.00;6.43;;;28.30;32.70;;;;;;10380619;28;20237;-78
2021/06/19 07:59:09;;;;;;;7.43;6.70;;;28.50;32.70;;;;;;10386052;28;20385;-79
2021/06/19 08:04:13;;;;;;;6.33;5.70;;;28.60;32.40;;;;;;10394682;28;20256;-75
2021/06/19 08:09:17;;;;;;;5.90;5.30;;;28.70;31.30;;;;;;10376715;28;20248;-75
2021/06/19 08:14:21;;;;;;;6.57;5.67;;;28.80;30.80;;;;;;10385111;28;20233;-75
2021/06/19 08:19:26;;;;;;;7.47;5.47;;;28.90;30.80;;;;;;10379501;28;20229;-75
2021/06/19 08:24:29;;;;;;;6.57;5.87;;;29.00;30.90;;;;;;10389943;28;20237;-80
2021/06/19 08:29:32;;;;;;;6.47;5.67;;;29.10;31.00;;;;;;10391276;28;20225;-79
2021/06/19 08:34:37;;;;;;;6.50;5.47;;;29.30;31.10;;;;;;10392081;28;20624;-79
2021/06/19 08:39:40;;;;;;;6.60;5.90;;;29.40;31.20;;;;;;10383560;28;20228;-79
2021/06/19 08:44:45;;;;;;;7.77;6.00;;;29.70;31.30;;;;;;10388658;28;20230;-80
2021/06/19 08:49:51;;;;;;;6.83;6.10;;;29.90;31.50;;;;;;10402321;28;20225;-79
2021/06/19 08:54:54;;;;;;;6.47;5.90;;;30.10;30.40;;;;;;10395746;28;20657;-79
2021/06/19 08:59:58;;;;;;;6.30;5.70;;;30.20;30.40;;;;;;10393500;28;20290;-76
2021/06/19 09:05:07;;;;;;;6.53;5.70;;;30.50;30.50;;;;;;10390552;28;20722;-76
2021/06/19 09:10:26;;;;;;;6.07;5.57;;;30.70;29.90;;;;;;10388079;28;20237;-75
2021/06/19 09:15:32;;;;;;;6.00;5.50;;;31.00;29.80;;;;;;10388360;28;20241;-77
2021/06/19 09:20:40;;;;;;;6.27;5.77;;;31.20;29.40;;;;;;10396491;28;20261;-79
2021/06/19 09:25:43;;;;;;;8.20;5.87;;;31.50;29.00;;;;;;10385969;28;20233;-77
2021/06/19 09:30:46;;;;;;;6.97;6.30;;;31.70;29.10;;;;;;10403444;28;20230;-76
2021/06/19 09:35:51;;;;;;;7.17;6.47;;;31.90;28.90;;;;;;10387561;28;20269;-79
2021/06/19 09:40:54;;;;;;;6.83;6.13;;;32.00;28.00;;;;;;10387937;28;20230;-78
2021/06/19 09:46:03;;;;;;;6.97;5.97;;;32.10;28.40;;;;;;10387821;28;20249;-79
2021/06/19 09:51:16;;;;;;;8.93;6.70;;;32.20;27.90;;;;;;10385107;28;20315;-78
2021/06/19 09:56:21;;;;;;;7.03;6.33;;;32.30;27.40;;;;;;10392002;28;20234;-79
2021/06/19 10:01:34;;;;;;;7.50;6.10;;;32.50;27.80;;;;;;10392743;28;20602;-79
2021/06/19 10:06:39;;;;;;;6.60;6.00;;;32.80;27.60;;;;;;10395308;28;20227;-76
2021/06/19 10:11:44;;;;;;;7.53;6.30;;;33.00;27.30;;;;;;10405248;28;20234;-75
2021/06/19 10:16:49;;;;;;;6.80;6.23;;;33.30;26.90;;;;;;10384960;28;20258;-76
2021/06/19 10:21:57;;;;;;;11.17;6.93;;;33.40;26.60;;;;;;10396836;28;20242;-75
2021/06/19 10:27:00;;;;;;;7.00;6.30;;;33.50;26.40;;;;;;10397427;28;20243;-75
2021/06/19 10:32:04;;;;;;;6.90;6.43;;;33.60;26.60;;;;;;10390478;28;20238;-76
2021/06/19 10:37:09;;;;;;;7.10;6.50;;;33.80;26.40;;;;;;10396193;28;20231;-78
2021/06/19 10:42:32;;;;;;;6.57;6.00;;;33.90;25.80;;;;;;10392319;28;20600;-79
2021/06/19 10:47:59;;;;;;;7.10;6.50;;;34.10;25.80;;;;;;10391874;28;20247;-80
2021/06/19 10:53:06;;;;;;;8.10;6.50;;;34.20;25.50;;;;;;10380168;28;20576;-79
2021/06/19 10:58:20;;;;;;;6.20;5.70;;;34.40;24.50;;;;;;10381358;28;20225;-80
2021/06/19 11:03:43;;;;;;;6.90;6.30;;;34.50;24.10;;;;;;10395559;28;20236;-80
2021/06/19 11:09:13;;;;;;;6.20;5.70;;;34.70;24.40;;;;;;10388496;28;20675;-79
2021/06/19 11:14:51;;;;;;;7.97;6.30;;;34.90;24.10;;;;;;10375591;28;20226;-80
2021/06/19 11:19:55;;;;;;;6.87;6.30;;;34.90;23.60;;;;;;10391055;28;20234;-79
2021/06/19 11:25:35;;;;;;;6.13;5.73;;;35.00;22.60;;;;;;10388569;28;20231;-79
2021/06/19 11:30:53;;;;;;;5.43;5.13;;;35.10;22.70;;;;;;10393382;28;20240;-79
2021/06/19 11:36:34;;;;;;;6.03;5.53;;;35.20;21.10;;;;;;10396869;28;20237;-80
2021/06/19 11:41:44;;;;;;;6.43;5.97;;;35.20;21.90;;;;;;10387495;28;20295;-80
2021/06/19 11:46:56;;;;;;;7.47;6.73;;;35.30;21.40;;;;;;10390940;28;20234;-78
2021/06/19 11:51:59;;;;;;;6.77;6.17;;;35.40;21.80;;;;;;10382756;28;20704;-76
2021/06/19 11:57:05;;;;;;;7.43;6.03;;;35.50;22.10;;;;;;10388036;28;20227;-78
2021/06/19 12:02:14;;;;;;;6.40;6.00;;;35.50;22.20;;;;;;10379410;28;20234;-75
2021/06/19 12:07:25;;;;;;;6.30;5.80;;;35.50;21.60;;;;;;10379641;28;20248;-79
2021/06/19 12:12:30;;;;;;;6.57;6.07;;;35.50;21.30;;;;;;10380560;28;20894;-74
2021/06/19 12:17:42;;;;;;;6.20;5.70;;;35.60;20.90;;;;;;10378203;28;20239;-72
2021/06/19 12:22:45;;;;;;;6.43;6.03;;;35.60;20.50;;;;;;10376798;28;20226;-75
2021/06/19 12:27:49;;;;;;;6.87;6.17;;;35.60;21.00;;;;;;10380269;28;20241;-74
2021/06/19 12:32:53;;;;;;;6.73;6.33;;;35.70;20.50;;;;;;10384360;28;20264;-77
2021/06/19 12:37:58;;;;;;;6.90;6.40;;;35.70;20.40;;;;;;10384315;28;21144;-77
2021/06/19 12:43:06;;;;;;;7.27;6.50;;;35.70;20.10;;;;;;10382984;28;20239;-81
2021/06/19 12:48:23;;;;;;;6.53;6.00;;;35.80;19.50;;;;;;10387100;28;20705;-81
2021/06/19 12:53:27;;;;;;;7.03;6.43;;;35.80;20.20;;;;;;10384845;28;20712;-74
2021/06/19 12:58:37;;;;;;;7.00;6.50;;;35.90;20.10;;;;;;10383071;28;20234;-74
2021/06/19 13:03:48;;;;;;;6.93;6.43;;;35.90;19.60;;;;;;10393230;28;21066;-82
2021/06/19 13:08:55;;;;;;;8.57;6.00;;;36.00;19.70;;;;;;10387266;28;20238;-82
2021/06/19 13:14:02;;;;;;;7.07;6.57;;;36.10;19.00;;;;;;10390559;28;20242;-76
2021/06/19 13:19:07;;;;;;;6.97;6.47;;;36.20;18.80;;;;;;10368305;28;21279;-81
2021/06/19 13:24:25;;;;;;;7.00;6.40;;;36.10;19.00;;;;;;10379955;28;20239;-71
2021/06/19 13:29:30;;;;;;;7.07;6.47;;;36.10;18.90;;;;;;10378807;28;20233;-74
2021/06/19 13:34:33;;;;;;;6.67;6.17;;;36.10;18.20;;;;;;10375771;28;20244;-74
2021/06/19 13:39:38;;;;;;;6.73;6.23;;;36.00;18.70;;;;;;10382890;28;20720;-74
2021/06/19 13:44:51;;;;;;;6.77;6.23;;;36.00;18.70;;;;;;10381763;28;20238;-76
2021/06/19 13:49:55;;;;;;;6.63;6.20;;;36.00;18.10;;;;;;10382815;28;20223;-74
2021/06/19 13:55:01;;;;;;;6.73;6.23;;;36.10;18.60;;;;;;10382208;28;20233;-74
2021/06/19 14:00:07;;;;;;;6.90;6.40;;;36.00;18.90;;;;;;10386000;28;20331;-75
2021/06/19 14:05:11;;;;;;;7.27;6.77;;;36.10;17.90;;;;;;10397199;28;20606;-82
2021/06/19 14:10:14;;;;;;;6.90;6.30;;;36.20;18.20;;;;;;10390885;28;20233;-82
2021/06/19 14:15:20;;;;;;;6.53;6.10;;;36.10;17.90;;;;;;10374772;28;20229;-74
2021/06/19 14:20:23;;;;;;;6.70;6.20;;;36.10;17.60;;;;;;10383573;28;20230;-77
2021/06/19 14:25:26;;;;;;;6.57;6.17;;;36.00;17.60;;;;;;10383596;28;20230;-77
2021/06/19 14:30:31;;;;;;;6.83;6.13;;;36.00;17.50;;;;;;10387361;28;20233;-77
2021/06/19 14:35:34;;;;;;;6.40;5.90;;;35.90;17.30;;;;;;10382842;28;20733;-82
2021/06/19 14:40:38;;;;;;;6.97;6.07;;;35.90;17.40;;;;;;10389227;28;20313;-77
2021/06/19 14:45:43;;;;;;;5.97;5.57;;;35.90;17.40;;;;;;10384972;28;20229;-82
2021/06/19 14:50:48;;;;;;;6.30;5.80;;;35.90;16.80;;;;;;10382860;28;20325;-74
2021/06/19 14:55:51;;;;;;;6.53;5.93;;;36.00;17.20;;;;;;10380548;28;20221;-74
2021/06/19 15:00:56;;;;;;;6.67;6.07;;;36.00;17.10;;;;;;10380442;28;20237;-74
2021/06/19 15:06:01;;;;;;;6.37;5.87;;;35.90;16.70;;;;;;10387608;28;20232;-82
2021/06/19 15:11:05;;;;;;;6.57;6.07;;;35.90;16.90;;;;;;10386718;28;20248;-82
2021/06/19 15:16:09;;;;;;;7.03;6.33;;;35.90;17.20;;;;;;10391919;28;20284;-83
2021/06/19 15:21:17;;;;;;;6.43;5.90;;;36.00;17.10;;;;;;10390289;28;20252;-83
2021/06/19 15:26:20;;;;;;;6.57;6.07;;;36.00;16.90;;;;;;10385735;28;20235;-83
2021/06/19 15:31:25;;;;;;;6.30;5.80;;;36.00;17.00;;;;;;10384083;28;20233;-82
2021/06/19 15:36:28;;;;;;;6.70;6.10;;;36.00;16.80;;;;;;10394196;28;20241;-84
2021/06/19 15:41:32;;;;;;;6.77;6.27;;;36.00;16.90;;;;;;10380670;28;20222;-74
2021/06/19 15:46:36;;;;;;;6.37;5.87;;;35.90;16.70;;;;;;10379101;28;20241;-74
2021/06/19 15:51:40;;;;;;;6.77;6.17;;;35.90;16.90;;;;;;10373848;28;20245;-74
2021/06/19 15:56:44;;;;;;;5.77;5.37;;;35.90;17.10;;;;;;10379976;28;20229;-74
2021/06/19 16:01:49;;;;;;;6.63;6.03;;;35.90;16.90;;;;;;10375120;28;20228;-74
2021/06/19 16:06:52;;;;;;;6.57;5.97;;;35.90;16.60;;;;;;10378868;28;20311;-74
2021/06/19 16:11:56;;;;;;;5.87;5.43;;;35.80;17.10;;;;;;10373109;28;20229;-74
2021/06/19 16:17:00;;;;;;;6.50;6.00;;;35.80;17.00;;;;;;10378025;28;20247;-74
2021/06/19 16:22:04;;;;;;;6.00;5.60;;;35.80;16.70;;;;;;10371285;28;20895;-77
2021/06/19 16:27:08;;;;;;;6.00;5.60;;;35.80;16.70;;;;;;10373876;28;20234;-75
2021/06/19 16:32:13;;;;;;;6.47;5.80;;;35.90;16.60;;;;;;10378437;28;20237;-74
2021/06/19 16:37:16;;;;;;;6.40;5.60;;;35.90;16.10;;;;;;10386364;28;20236;-81
2021/06/19 16:42:20;;;;;;;6.40;5.73;;;35.90;16.10;;;;;;10376370;28;20984;-80
2021/06/19 16:47:24;;;;;;;6.67;6.17;;;35.90;16.20;;;;;;10394015;28;20247;-81
2021/06/19 16:52:28;;;;;;;6.50;6.03;;;35.90;15.70;;;;;;10386563;28;20668;-74
2021/06/19 16:57:31;;;;;;;6.90;6.30;;;35.90;15.90;;;;;;10376445;28;20240;-74
2021/06/19 17:02:36;;;;;;;6.27;5.80;;;35.80;16.00;;;;;;10376856;28;20260;-75
2021/06/19 17:07:39;;;;;;;5.73;5.33;;;35.70;15.60;;;;;;10379469;28;20237;-74
2021/06/19 17:12:42;;;;;;;9.07;8.47;;;35.70;15.90;;;;;;10384258;28;20237;-74
2021/06/19 17:17:48;;;;;;;11.37;10.57;;;35.60;16.10;;;;;;10385930;28;20227;-74
2021/06/19 17:22:51;;;;;;;9.37;8.57;;;35.50;16.10;;;;;;10385614;28;20245;-74
2021/06/19 17:27:54;;;;;;;6.80;6.30;;;35.50;16.40;;;;;;10359248;28;20234;-74
2021/06/19 17:32:59;;;;;;;7.07;6.57;;;35.40;16.50;;;;;;10378214;28;20653;-74
2021/06/19 17:38:02;;;;;;;6.97;6.37;;;35.40;16.50;;;;;;10383565;28;20252;-74
2021/06/19 17:43:05;;;;;;;7.70;7.00;;;35.30;16.60;;;;;;10379834;28;20242;-74
2021/06/19 17:48:10;;;;;;;13.47;12.37;;;35.30;16.70;;;;;;10386288;28;21201;-77
2021/06/19 17:53:19;;;;;;;10.77;9.87;;;35.30;16.70;;;;;;10378851;28;20236;-77
2021/06/19 17:58:23;;;;;;;8.87;8.17;;;35.20;16.60;;;;;;10386681;28;20240;-77
2021/06/19 18:03:27;;;;;;;7.53;6.87;;;35.20;16.80;;;;;;10387592;28;20244;-77
2021/06/19 18:08:35;;;;;;;6.77;6.27;;;35.20;17.20;;;;;;10391980;28;20236;-77
2021/06/19 18:13:42;;;;;;;6.50;6.10;;;35.20;18.00;;;;;;10391327;28;20788;-77
2021/06/19 18:18:47;;;;;;;6.30;5.80;;;35.20;18.40;;;;;;10394469;28;20225;-77
2021/06/19 18:23:50;;;;;;;6.53;6.03;;;35.20;18.50;;;;;;10384330;28;20237;-74
2021/06/19 18:28:53;;;;;;;7.90;6.30;;;35.10;18.50;;;;;;10377247;28;20242;-74
2021/06/19 18:33:58;;;;;;;7.00;6.50;;;35.00;18.40;;;;;;10383274;28;20624;-82
2021/06/19 18:39:01;;;;;;;12.33;11.37;;;34.90;18.40;;;;;;10387610;28;20234;-82
2021/06/19 18:44:05;;;;;;;15.03;13.83;;;34.80;18.80;;;;;;10382248;28;20230;-77
2021/06/19 18:49:09;;;;;;;10.50;9.77;;;34.70;19.00;;;;;;10377892;28;20729;-77
2021/06/19 18:54:15;;;;;;;9.33;6.87;;;34.50;19.50;;;;;;10379838;28;20722;-77
2021/06/19 18:59:19;;;;;;;7.20;6.70;;;34.40;19.90;;;;;;10393472;28;20222;-79
2021/06/19 19:04:23;;;;;;;7.23;6.73;;;34.30;19.50;;;;;;10368476;23;20240;-73
2021/06/19 19:09:27;;;;;;;7.43;6.83;;;34.10;20.10;;;;;;10341573;28;20242;-73
2021/06/19 19:14:30;;;;;;;7.07;6.50;;;34.00;20.00;;;;;;10345614;28;20236;-73
2021/06/19 19:19:35;;;;;;;7.60;7.00;;;33.90;20.50;;;;;;10348991;28;20255;-73
2021/06/19 19:24:39;;;;;;;7.93;7.13;;;33.80;21.00;;;;;;10340628;28;20227;-72
2021/06/19 19:29:44;;;;;;;7.60;7.00;;;33.60;20.80;;;;;;10343494;28;20238;-73
2021/06/19 19:34:49;;;;;;;7.77;7.07;;;33.40;20.80;;;;;;10347835;28;20745;-73
2021/06/19 19:39:53;;;;;;;8.47;7.40;;;33.20;21.30;;;;;;10333143;28;20234;-72
2021/06/19 19:44:56;;;;;;;7.63;7.07;;;33.00;21.10;;;;;;10351326;28;20230;-75
2021/06/19 19:50:01;;;;;;;7.33;6.77;;;32.90;21.40;;;;;;10355093;28;20274;-74
2021/06/19 19:55:07;;;;;;;7.97;7.47;;;32.80;21.80;;;;;;10355474;28;20948;-74
2021/06/19 20:00:12;;;;;;;8.70;8.10;;;32.70;22.10;;;;;;10348895;28;20226;-74
2021/06/19 20:05:18;;;;;;;8.00;7.50;;;32.50;22.40;;;;;;10357444;28;20780;-74
2021/06/19 20:10:23;;;;;;;7.50;6.80;;;32.40;22.30;;;;;;10347372;28;20234;-75
2021/06/19 20:15:26;;;;;;;18.53;17.03;;;32.30;22.30;;;;;;10343954;28;20665;-75
2021/06/19 20:20:32;;;;;;;10.17;9.37;;;32.20;22.20;;;;;;10348240;28;20234;-75
2021/06/19 20:25:37;;;;;;;16.13;14.77;;;31.90;22.60;;;;;;10352992;28;20276;-75
2021/06/19 20:30:40;;;;;;;10.10;9.30;;;31.80;22.50;;;;;;10355151;28;20233;-75
2021/06/19 20:35:53;;;;;;;23.50;21.23;;;31.70;22.70;;;;;;10340436;28;20230;-75
2021/06/19 20:40:57;;;;;;;17.93;16.43;;;31.50;23.20;;;;;;10347824;28;20228;-75
2021/06/19 20:46:03;;;;;;;11.90;10.80;;;31.40;23.00;;;;;;10346804;28;20253;-74
2021/06/19 20:51:09;;;;;;;12.53;11.43;;;31.30;23.00;;;;;;10357274;28;20233;-74
2021/06/19 20:56:13;;;;;;;10.43;9.63;;;31.20;23.40;;;;;;10355894;28;20230;-74
2021/06/19 21:01:16;;;;;;;9.30;8.50;;;31.10;23.40;;;;;;10359034;28;20226;-75
2021/06/19 21:06:21;;;;;;;21.73;19.50;;;31.00;23.60;;;;;;10372401;28;20238;-76
2021/06/19 21:11:24;;;;;;;22.33;19.13;;;30.90;24.00;;;;;;10367880;28;20238;-75
2021/06/19 21:16:29;;;;;;;14.53;13.00;;;30.80;23.80;;;;;;10367007;28;20233;-75
2021/06/19 21:21:34;;;;;;;11.00;9.50;;;30.70;24.00;;;;;;10348234;28;20227;-74
2021/06/19 21:26:37;;;;;;;9.40;8.70;;;30.60;24.40;;;;;;10361148;28;20261;-75
2021/06/19 21:31:40;;;;;;;9.50;8.70;;;30.50;24.30;;;;;;10356759;28;20230;-74
2021/06/19 21:36:47;;;;;;;9.40;8.63;;;30.40;24.50;;;;;;10358047;28;20231;-75
2021/06/19 21:41:51;;;;;;;14.37;12.97;;;30.30;24.90;;;;;;10358803;28;20230;-74
2021/06/19 21:46:54;;;;;;;13.30;12.07;;;30.30;24.70;;;;;;10361595;28;20266;-75
2021/06/19 21:51:59;;;;;;;11.37;10.30;;;30.20;24.80;;;;;;10364480;28;20698;-73
2021/06/19 21:57:02;;;;;;;10.47;9.57;;;30.20;25.20;;;;;;10344820;28;20230;-75
2021/06/19 22:02:08;;;;;;;9.43;8.73;;;30.10;25.00;;;;;;10360603;28;20948;-74
2021/06/19 22:07:13;;;;;;;10.17;9.37;;;29.90;25.00;;;;;;10352389;28;20611;-75
2021/06/19 22:12:17;;;;;;;10.70;9.73;;;29.80;25.60;;;;;;10356494;28;20706;-75
2021/06/19 22:17:20;;;;;;;9.97;9.20;;;29.70;25.40;;;;;;10345592;28;20576;-75
2021/06/19 22:22:25;;;;;;;9.80;8.83;;;29.50;25.50;;;;;;10360761;28;20245;-73
2021/06/19 22:27:28;;;;;;;9.30;8.60;;;29.30;26.00;;;;;;10351601;28;20248;-75
2021/06/19 22:32:31;;;;;;;9.87;9.07;;;29.00;25.80;;;;;;10361938;28;20235;-73
2021/06/19 22:37:36;;;;;;;9.93;9.13;;;28.80;26.10;;;;;;10355004;28;20231;-75
2021/06/19 22:42:40;;;;;;;9.23;8.53;;;28.70;26.70;;;;;;10363912;28;20230;-75
2021/06/19 22:47:43;;;;;;;9.10;8.40;;;28.60;26.60;;;;;;10369482;28;20737;-75
2021/06/19 22:52:48;;;;;;;9.27;8.67;;;28.50;27.00;;;;;;10344574;28;20227;-75
2021/06/19 22:57:52;;;;;;;9.87;9.07;;;28.40;27.10;;;;;;10361011;28;20234;-75
2021/06/19 23:02:55;;;;;;;9.50;8.73;;;28.40;27.20;;;;;;10357709;28;20233;-75
2021/06/19 23:08:00;;;;;;;10.17;9.37;;;28.30;27.10;;;;;;10359535;28;20234;-75
2021/06/19 23:13:03;;;;;;;10.43;9.63;;;28.20;27.50;;;;;;10355161;28;20231;-75
2021/06/19 23:18:06;;;;;;;10.67;9.73;;;28.10;27.30;;;;;;10354319;28;20222;-75
2021/06/19 23:23:11;;;;;;;10.20;9.30;;;28.00;27.50;;;;;;10361798;28;20226;-74
2021/06/19 23:28:14;;;;;;;10.07;9.27;;;27.90;28.10;;;;;;10361258;28;20242;-74
2021/06/19 23:33:18;;;;;;;11.23;10.33;;;27.80;27.60;;;;;;10361321;28;20237;-75
2021/06/19 23:38:23;;;;;;;9.93;9.13;;;27.70;28.00;;;;;;10360312;28;20244;-75
2021/06/19 23:43:26;;;;;;;11.03;10.13;;;27.60;28.30;;;;;;10347719;28;20234;-75
2021/06/19 23:48:29;;;;;;;10.43;9.63;;;27.50;28.30;;;;;;10346842;28;20257;-75
2021/06/19 23:53:34;;;;;;;15.07;13.87;;;27.40;28.40;;;;;;10351850;28;20663;-74
2021/06/19 23:58:37;;;;;;;11.27;10.47;;;27.30;28.90;;;;;;10363726;28;20694;-74
